KLIT

Bill and Hillary Clinton National / Adams Field Airport

Little Rock, Arkansas, USA
METAR KLIT 240153Z 01004KT 10SM SCT110 BKN250 21/21 A3007 RMK AO2 SLP183 T02110206
Observed Flight Rules
May-24 @ 01:53 UTC (30 minutes ago) Visual Flight Rules
Wind Visibility Clouds
10° at 4 knots 10 miles
  • Scattered at 11,000' AGL
  • Broken at 25,000' AGL
Temperatures Readings
Current 21°C / 70°F
Dewpoint 21°C / 70°F
Humidity 100%
Altimeter 30.07" Hg
Pressure 1018.3 hPa
Elevation 79
METAR KLIT 240153Z 01004KT 10SM SCT110 BKN250 21/21 A3007 RMK AO2 SLP183 T02110206
Observed Flight Rules
May-24 @ 01:53 UTC
(30 minutes ago)
VFR
Wind Visibility
10° at 4 knots 10 miles
Clouds
  • Scattered at 11,000' AGL
  • Broken at 25,000' AGL
Temperature Dewpoint
21°C / 70°F 21°C / 70°F
Humidity Altimeter Pressure
100% 30.07" Hg 1018.3 hPa